sensor_id;sensor_type;location;lat;lon;timestamp;P1;P2;P0
57411;PMS5003;43247;52.828;-8.980;2023-04-07T00:00:10;26;23;
57411;PMS5003;43247;52.828;-8.980;2023-04-07T00:01:10;18;18;
57411;PMS5003;43247;52.828;-8.980;2023-04-07T00:02:11;25;22;
57411;PMS5003;43247;52.828;-8.980;2023-04-07T00:03:11;18;18;
57411;PMS5003;43247;52.828;-8.980;2023-04-07T00:04:12;17;17;
57411;PMS5003;43247;52.828;-8.980;2023-04-07T00:05:12;18;18;
57411;PMS5003;43247;52.828;-8.980;2023-04-07T00:06:12;19;19;
57411;PMS5003;43247;52.828;-8.980;2023-04-07T00:07:13;16;16;
57411;PMS5003;43247;52.828;-8.980;2023-04-07T00:08:13;15;15;
57411;PMS5003;43247;52.828;-8.980;2023-04-07T00:09:13;17;17;
57411;PMS5003;43247;52.828;-8.980;2023-04-07T00:10:14;19;18;
57411;PMS5003;43247;52.828;-8.980;2023-04-07T00:11:15;17;16;
57411;PMS5003;43247;52.828;-8.980;2023-04-07T00:12:15;21;20;
57411;PMS5003;43247;52.828;-8.980;2023-04-07T00:13:15;18;16;
57411;PMS5003;43247;52.828;-8.980;2023-04-07T00:14:16;16;16;
57411;PMS5003;43247;52.828;-8.980;2023-04-07T00:15:16;16;15;
57411;PMS5003;43247;52.828;-8.980;2023-04-07T00:16:16;22;21;
57411;PMS5003;43247;52.828;-8.980;2023-04-07T00:17:16;16;16;
57411;PMS5003;43247;52.828;-8.980;2023-04-07T00:18:16;16;15;
57411;PMS5003;43247;52.828;-8.980;2023-04-07T00:19:17;20;17;
57411;PMS5003;43247;52.828;-8.980;2023-04-07T00:20:17;15;15;
57411;PMS5003;43247;52.828;-8.980;2023-04-07T00:21:18;16;15;
57411;PMS5003;43247;52.828;-8.980;2023-04-07T00:22:18;14;13;
57411;PMS5003;43247;52.828;-8.980;2023-04-07T00:23:18;13;13;
57411;PMS5003;43247;52.828;-8.980;2023-04-07T00:24:19;13;11;
57411;PMS5003;43247;52.828;-8.980;2023-04-07T00:25:19;16;16;
57411;PMS5003;43247;52.828;-8.980;2023-04-07T00:26:19;15;13;
57411;PMS5003;43247;52.828;-8.980;2023-04-07T00:27:19;13;13;
57411;PMS5003;43247;52.828;-8.980;2023-04-07T00:28:19;11;11;
57411;PMS5003;43247;52.828;-8.980;2023-04-07T00:29:20;13;13;
57411;PMS5003;43247;52.828;-8.980;2023-04-07T00:30:20;11;11;
57411;PMS5003;43247;52.828;-8.980;2023-04-07T00:31:20;11;11;
57411;PMS5003;43247;52.828;-8.980;2023-04-07T00:32:20;11;10;
57411;PMS5003;43247;52.828;-8.980;2023-04-07T00:33:21;11;9;
57411;PMS5003;43247;52.828;-8.980;2023-04-07T00:34:21;11;9;
57411;PMS5003;43247;52.828;-8.980;2023-04-07T00:35:22;12;12;
57411;PMS5003;43247;52.828;-8.980;2023-04-07T00:36:22;12;11;
57411;PMS5003;43247;52.828;-8.980;2023-04-07T00:37:22;10;8;
57411;PMS5003;43247;52.828;-8.980;2023-04-07T00:38:23;11;11;
57411;PMS5003;43247;52.828;-8.980;2023-04-07T00:39:23;11;10;
57411;PMS5003;43247;52.828;-8.980;2023-04-07T00:40:23;8;8;
57411;PMS5003;43247;52.828;-8.980;2023-04-07T00:41:23;13;10;
57411;PMS5003;43247;52.828;-8.980;2023-04-07T00:42:23;12;10;
57411;PMS5003;43247;52.828;-8.980;2023-04-07T00:43:24;10;10;
57411;PMS5003;43247;52.828;-8.980;2023-04-07T00:44:24;10;10;
57411;PMS5003;43247;52.828;-8.980;2023-04-07T00:45:24;9;8;
57411;PMS5003;43247;52.828;-8.980;2023-04-07T00:46:24;9;8;
57411;PMS5003;43247;52.828;-8.980;2023-04-07T00:47:24;9;9;
57411;PMS5003;43247;52.828;-8.980;2023-04-07T00:48:25;8;6;
57411;PMS5003;43247;52.828;-8.980;2023-04-07T00:49:25;8;8;
57411;PMS5003;43247;52.828;-8.980;2023-04-07T00:50:26;16;12;
57411;PMS5003;43247;52.828;-8.980;2023-04-07T00:51:26;7;7;
57411;PMS5003;43247;52.828;-8.980;2023-04-07T00:52:26;8;8;
57411;PMS5003;43247;52.828;-8.980;2023-04-07T00:53:26;9;9;
57411;PMS5003;43247;52.828;-8.980;2023-04-07T00:54:26;8;8;
57411;PMS5003;43247;52.828;-8.980;2023-04-07T00:55:26;7;7;
57411;PMS5003;43247;52.828;-8.980;2023-04-07T00:56:27;10;8;
57411;PMS5003;43247;52.828;-8.980;2023-04-07T00:57:28;9;8;
57411;PMS5003;43247;52.828;-8.980;2023-04-07T00:58:28;7;7;
57411;PMS5003;43247;52.828;-8.980;2023-04-07T00:59:28;8;7;
57411;PMS5003;43247;52.828;-8.980;2023-04-07T01:00:28;9;7;
57411;PMS5003;43247;52.828;-8.980;2023-04-07T01:01:29;8;7;
57411;PMS5003;43247;52.828;-8.980;2023-04-07T01:02:31;7;7;
57411;PMS5003;43247;52.828;-8.980;2023-04-07T01:03:29;9;9;
57411;PMS5003;43247;52.828;-8.980;2023-04-07T01:04:31;6;6;
57411;PMS5003;43247;52.828;-8.980;2023-04-07T01:05:32;9;8;
57411;PMS5003;43247;52.828;-8.980;2023-04-07T01:06:30;7;7;
57411;PMS5003;43247;52.828;-8.980;2023-04-07T01:07:31;7;7;
57411;PMS5003;43247;52.828;-8.980;2023-04-07T01:08:32;6;6;
57411;PMS5003;43247;52.828;-8.980;2023-04-07T01:09:33;7;7;
57411;PMS5003;43247;52.828;-8.980;2023-04-07T01:10:32;9;9;
57411;PMS5003;43247;52.828;-8.980;2023-04-07T01:11:33;11;11;
57411;PMS5003;43247;52.828;-8.980;2023-04-07T01:12:34;7;7;
57411;PMS5003;43247;52.828;-8.980;2023-04-07T01:13:33;7;7;
57411;PMS5003;43247;52.828;-8.980;2023-04-07T01:14:32;9;9;
57411;PMS5003;43247;52.828;-8.980;2023-04-07T01:15:32;11;9;
57411;PMS5003;43247;52.828;-8.980;2023-04-07T01:16:33;12;10;
57411;PMS5003;43247;52.828;-8.980;2023-04-07T01:17:32;10;10;
57411;PMS5003;43247;52.828;-8.980;2023-04-07T01:18:32;12;12;
57411;PMS5003;43247;52.828;-8.980;2023-04-07T01:19:34;12;12;
57411;PMS5003;43247;52.828;-8.980;2023-04-07T01:20:32;14;13;
57411;PMS5003;43247;52.828;-8.980;2023-04-07T01:21:33;11;10;
57411;PMS5003;43247;52.828;-8.980;2023-04-07T01:22:33;14;12;
57411;PMS5003;43247;52.828;-8.980;2023-04-07T01:24:40;15;14;
57411;PMS5003;43247;52.828;-8.980;2023-04-07T01:25:38;14;13;
57411;PMS5003;43247;52.828;-8.980;2023-04-07T01:26:34;9;9;
57411;PMS5003;43247;52.828;-8.980;2023-04-07T01:27:35;11;10;
57411;PMS5003;43247;52.828;-8.980;2023-04-07T01:28:40;12;12;
57411;PMS5003;43247;52.828;-8.980;2023-04-07T01:29:36;14;13;
57411;PMS5003;43247;52.828;-8.980;2023-04-07T01:30:37;10;10;
57411;PMS5003;43247;52.828;-8.980;2023-04-07T01:31:36;11;11;
57411;PMS5003;43247;52.828;-8.980;2023-04-07T01:32:36;11;10;
57411;PMS5003;43247;52.828;-8.980;2023-04-07T01:33:36;11;11;
57411;PMS5003;43247;52.828;-8.980;2023-04-07T01:34:36;10;10;
57411;PMS5003;43247;52.828;-8.980;2023-04-07T01:35:36;11;9;
57411;PMS5003;43247;52.828;-8.980;2023-04-07T01:36:37;10;10;
57411;PMS5003;43247;52.828;-8.980;2023-04-07T01:37:37;10;9;
57411;PMS5003;43247;52.828;-8.980;2023-04-07T01:38:37;7;7;
57411;PMS5003;43247;52.828;-8.980;2023-04-07T01:39:37;10;8;
57411;PMS5003;43247;52.828;-8.980;2023-04-07T01:40:37;6;6;
57411;PMS5003;43247;52.828;-8.980;2023-04-07T01:41:37;7;7;
57411;PMS5003;43247;52.828;-8.980;2023-04-07T01:42:38;7;6;
57411;PMS5003;43247;52.828;-8.980;2023-04-07T01:43:38;8;8;
57411;PMS5003;43247;52.828;-8.980;2023-04-07T01:44:38;5;5;
57411;PMS5003;43247;52.828;-8.980;2023-04-07T01:45:38;5;5;
57411;PMS5003;43247;52.828;-8.980;2023-04-07T01:46:38;7;7;
57411;PMS5003;43247;52.828;-8.980;2023-04-07T01:47:39;5;5;
57411;PMS5003;43247;52.828;-8.980;2023-04-07T01:48:39;6;6;
57411;PMS5003;43247;52.828;-8.980;2023-04-07T01:49:39;6;6;
57411;PMS5003;43247;52.828;-8.980;2023-04-07T01:50:40;6;6;
57411;PMS5003;43247;52.828;-8.980;2023-04-07T01:51:40;6;6;
57411;PMS5003;43247;52.828;-8.980;2023-04-07T01:52:40;7;7;
57411;PMS5003;43247;52.828;-8.980;2023-04-07T01:53:40;6;6;
57411;PMS5003;43247;52.828;-8.980;2023-04-07T01:54:40;4;4;
57411;PMS5003;43247;52.828;-8.980;2023-04-07T01:55:41;8;7;
57411;PMS5003;43247;52.828;-8.980;2023-04-07T01:56:41;4;4;
57411;PMS5003;43247;52.828;-8.980;2023-04-07T01:57:41;5;5;
57411;PMS5003;43247;52.828;-8.980;2023-04-07T01:58:41;5;5;
57411;PMS5003;43247;52.828;-8.980;2023-04-07T01:59:41;6;4;
57411;PMS5003;43247;52.828;-8.980;2023-04-07T02:00:41;5;5;
57411;PMS5003;43247;52.828;-8.980;2023-04-07T02:01:42;6;4;
57411;PMS5003;43247;52.828;-8.980;2023-04-07T02:02:43;4;4;
57411;PMS5003;43247;52.828;-8.980;2023-04-07T02:03:43;4;4;
57411;PMS5003;43247;52.828;-8.980;2023-04-07T02:04:44;6;4;
57411;PMS5003;43247;52.828;-8.980;2023-04-07T02:05:42;5;5;
57411;PMS5003;43247;52.828;-8.980;2023-04-07T02:06:52;8;7;
57411;PMS5003;43247;52.828;-8.980;2023-04-07T02:07:45;6;6;
57411;PMS5003;43247;52.828;-8.980;2023-04-07T02:08:45;7;7;
57411;PMS5003;43247;52.828;-8.980;2023-04-07T02:09:43;9;7;
57411;PMS5003;43247;52.828;-8.980;2023-04-07T02:10:45;10;10;
57411;PMS5003;43247;52.828;-8.980;2023-04-07T02:11:44;8;8;
57411;PMS5003;43247;52.828;-8.980;2023-04-07T02:12:44;12;11;
57411;PMS5003;43247;52.828;-8.980;2023-04-07T02:13:44;11;10;
57411;PMS5003;43247;52.828;-8.980;2023-04-07T02:14:44;12;11;
57411;PMS5003;43247;52.828;-8.980;2023-04-07T02:15:44;10;10;
57411;PMS5003;43247;52.828;-8.980;2023-04-07T02:16:44;8;8;
57411;PMS5003;43247;52.828;-8.980;2023-04-07T02:17:46;7;7;
57411;PMS5003;43247;52.828;-8.980;2023-04-07T02:18:45;8;8;
57411;PMS5003;43247;52.828;-8.980;2023-04-07T02:19:45;8;7;
57411;PMS5003;43247;52.828;-8.980;2023-04-07T02:20:45;7;7;
57411;PMS5003;43247;52.828;-8.980;2023-04-07T02:21:45;6;6;
57411;PMS5003;43247;52.828;-8.980;2023-04-07T02:22:46;7;6;
57411;PMS5003;43247;52.828;-8.980;2023-04-07T02:23:46;5;5;
57411;PMS5003;43247;52.828;-8.980;2023-04-07T02:24:46;5;5;
57411;PMS5003;43247;52.828;-8.980;2023-04-07T02:25:46;7;7;
57411;PMS5003;43247;52.828;-8.980;2023-04-07T02:26:46;6;5;
57411;PMS5003;43247;52.828;-8.980;2023-04-07T02:27:46;5;5;
57411;PMS5003;43247;52.828;-8.980;2023-04-07T02:28:47;6;6;
57411;PMS5003;43247;52.828;-8.980;2023-04-07T02:29:47;6;5;
57411;PMS5003;43247;52.828;-8.980;2023-04-07T02:30:47;4;4;
57411;PMS5003;43247;52.828;-8.980;2023-04-07T02:31:47;7;5;
57411;PMS5003;43247;52.828;-8.980;2023-04-07T02:32:47;5;5;
57411;PMS5003;43247;52.828;-8.980;2023-04-07T02:33:48;4;4;
57411;PMS5003;43247;52.828;-8.980;2023-04-07T02:34:48;6;6;
57411;PMS5003;43247;52.828;-8.980;2023-04-07T02:35:48;6;4;
57411;PMS5003;43247;52.828;-8.980;2023-04-07T02:36:48;3;3;
57411;PMS5003;43247;52.828;-8.980;2023-04-07T02:37:48;3;3;
57411;PMS5003;43247;52.828;-8.980;2023-04-07T02:38:49;4;4;
57411;PMS5003;43247;52.828;-8.980;2023-04-07T02:39:49;3;3;
57411;PMS5003;43247;52.828;-8.980;2023-04-07T02:40:49;4;4;
57411;PMS5003;43247;52.828;-8.980;2023-04-07T02:41:49;5;3;
57411;PMS5003;43247;52.828;-8.980;2023-04-07T02:42:49;6;3;
57411;PMS5003;43247;52.828;-8.980;2023-04-07T02:43:49;2;2;
57411;PMS5003;43247;52.828;-8.980;2023-04-07T02:44:50;3;3;
57411;PMS5003;43247;52.828;-8.980;2023-04-07T02:45:50;3;3;
57411;PMS5003;43247;52.828;-8.980;2023-04-07T02:46:50;5;4;
57411;PMS5003;43247;52.828;-8.980;2023-04-07T02:47:50;4;4;
57411;PMS5003;43247;52.828;-8.980;2023-04-07T02:48:50;3;3;
57411;PMS5003;43247;52.828;-8.980;2023-04-07T02:49:51;5;4;
57411;PMS5003;43247;52.828;-8.980;2023-04-07T02:50:51;5;3;
57411;PMS5003;43247;52.828;-8.980;2023-04-07T02:51:51;3;3;
57411;PMS5003;43247;52.828;-8.980;2023-04-07T02:52:51;7;4;
57411;PMS5003;43247;52.828;-8.980;2023-04-07T02:53:51;6;5;
57411;PMS5003;43247;52.828;-8.980;2023-04-07T02:54:51;3;3;
57411;PMS5003;43247;52.828;-8.980;2023-04-07T02:55:52;6;4;
57411;PMS5003;43247;52.828;-8.980;2023-04-07T02:56:52;4;4;
57411;PMS5003;43247;52.828;-8.980;2023-04-07T02:57:52;4;4;
57411;PMS5003;43247;52.828;-8.980;2023-04-07T02:58:52;4;4;
57411;PMS5003;43247;52.828;-8.980;2023-04-07T02:59:52;4;3;
57411;PMS5003;43247;52.828;-8.980;2023-04-07T03:00:53;5;5;
57411;PMS5003;43247;52.828;-8.980;2023-04-07T03:01:53;3;3;
57411;PMS5003;43247;52.828;-8.980;2023-04-07T03:02:53;3;3;
57411;PMS5003;43247;52.828;-8.980;2023-04-07T03:03:53;3;3;
57411;PMS5003;43247;52.828;-8.980;2023-04-07T03:04:53;3;3;
57411;PMS5003;43247;52.828;-8.980;2023-04-07T03:05:54;3;3;
57411;PMS5003;43247;52.828;-8.980;2023-04-07T03:06:54;3;3;
57411;PMS5003;43247;52.828;-8.980;2023-04-07T03:07:54;3;3;
57411;PMS5003;43247;52.828;-8.980;2023-04-07T03:08:54;5;4;
57411;PMS5003;43247;52.828;-8.980;2023-04-07T03:09:54;5;3;
57411;PMS5003;43247;52.828;-8.980;2023-04-07T03:10:54;3;3;
57411;PMS5003;43247;52.828;-8.980;2023-04-07T03:11:55;5;5;
57411;PMS5003;43247;52.828;-8.980;2023-04-07T03:12:55;3;3;
57411;PMS5003;43247;52.828;-8.980;2023-04-07T03:13:55;4;4;
57411;PMS5003;43247;52.828;-8.980;2023-04-07T03:14:55;4;4;
57411;PMS5003;43247;52.828;-8.980;2023-04-07T03:15:55;6;4;
57411;PMS5003;43247;52.828;-8.980;2023-04-07T03:16:55;3;3;
57411;PMS5003;43247;52.828;-8.980;2023-04-07T03:17:56;4;4;
57411;PMS5003;43247;52.828;-8.980;2023-04-07T03:18:56;4;3;
57411;PMS5003;43247;52.828;-8.980;2023-04-07T03:19:56;3;3;
57411;PMS5003;43247;52.828;-8.980;2023-04-07T03:20:56;5;5;
57411;PMS5003;43247;52.828;-8.980;2023-04-07T03:21:56;3;3;
57411;PMS5003;43247;52.828;-8.980;2023-04-07T03:22:57;4;4;
57411;PMS5003;43247;52.828;-8.980;2023-04-07T03:23:57;5;5;
57411;PMS5003;43247;52.828;-8.980;2023-04-07T03:24:57;6;5;
57411;PMS5003;43247;52.828;-8.980;2023-04-07T03:25:57;6;5;
57411;PMS5003;43247;52.828;-8.980;2023-04-07T03:26:57;4;3;
57411;PMS5003;43247;52.828;-8.980;2023-04-07T03:27:57;4;4;
57411;PMS5003;43247;52.828;-8.980;2023-04-07T03:28:58;5;5;
57411;PMS5003;43247;52.828;-8.980;2023-04-07T03:29:58;3;3;
57411;PMS5003;43247;52.828;-8.980;2023-04-07T03:30:58;5;5;
57411;PMS5003;43247;52.828;-8.980;2023-04-07T03:31:58;4;4;
57411;PMS5003;43247;52.828;-8.980;2023-04-07T03:32:58;4;4;
57411;PMS5003;43247;52.828;-8.980;2023-04-07T03:33:59;5;5;
57411;PMS5003;43247;52.828;-8.980;2023-04-07T03:34:59;4;4;
57411;PMS5003;43247;52.828;-8.980;2023-04-07T03:35:59;4;4;
57411;PMS5003;43247;52.828;-8.980;2023-04-07T03:36:59;5;5;
57411;PMS5003;43247;52.828;-8.980;2023-04-07T03:37:59;4;3;
57411;PMS5003;43247;52.828;-8.980;2023-04-07T03:39:00;4;4;
57411;PMS5003;43247;52.828;-8.980;2023-04-07T03:40:00;5;5;
57411;PMS5003;43247;52.828;-8.980;2023-04-07T03:41:00;5;5;
57411;PMS5003;43247;52.828;-8.980;2023-04-07T03:42:00;6;6;
57411;PMS5003;43247;52.828;-8.980;2023-04-07T03:43:00;4;4;
57411;PMS5003;43247;52.828;-8.980;2023-04-07T03:44:00;3;3;
57411;PMS5003;43247;52.828;-8.980;2023-04-07T03:45:01;6;6;
57411;PMS5003;43247;52.828;-8.980;2023-04-07T03:46:01;5;5;
57411;PMS5003;43247;52.828;-8.980;2023-04-07T03:47:01;3;3;
57411;PMS5003;43247;52.828;-8.980;2023-04-07T03:48:01;7;6;
57411;PMS5003;43247;52.828;-8.980;2023-04-07T03:49:01;7;6;
57411;PMS5003;43247;52.828;-8.980;2023-04-07T03:50:03;6;5;
57411;PMS5003;43247;52.828;-8.980;2023-04-07T03:51:03;4;4;
57411;PMS5003;43247;52.828;-8.980;2023-04-07T03:52:04;4;4;
57411;PMS5003;43247;52.828;-8.980;2023-04-07T03:53:04;5;5;
57411;PMS5003;43247;52.828;-8.980;2023-04-07T03:54:04;6;5;
57411;PMS5003;43247;52.828;-8.980;2023-04-07T03:55:05;5;5;
57411;PMS5003;43247;52.828;-8.980;2023-04-07T03:56:04;6;6;
57411;PMS5003;43247;52.828;-8.980;2023-04-07T03:57:05;4;4;
57411;PMS5003;43247;52.828;-8.980;2023-04-07T03:58:05;5;5;
57411;PMS5003;43247;52.828;-8.980;2023-04-07T03:59:05;6;6;
57411;PMS5003;43247;52.828;-8.980;2023-04-07T04:00:06;6;5;
57411;PMS5003;43247;52.828;-8.980;2023-04-07T04:01:05;7;6;
57411;PMS5003;43247;52.828;-8.980;2023-04-07T04:02:05;5;5;
57411;PMS5003;43247;52.828;-8.980;2023-04-07T04:03:06;8;4;
57411;PMS5003;43247;52.828;-8.980;2023-04-07T04:04:06;6;6;
57411;PMS5003;43247;52.828;-8.980;2023-04-07T04:05:06;5;5;
57411;PMS5003;43247;52.828;-8.980;2023-04-07T04:06:06;5;5;
57411;PMS5003;43247;52.828;-8.980;2023-04-07T04:07:06;6;6;
57411;PMS5003;43247;52.828;-8.980;2023-04-07T04:08:07;7;7;
57411;PMS5003;43247;52.828;-8.980;2023-04-07T04:09:07;8;7;
57411;PMS5003;43247;52.828;-8.980;2023-04-07T04:10:07;6;6;
57411;PMS5003;43247;52.828;-8.980;2023-04-07T04:11:07;7;7;
57411;PMS5003;43247;52.828;-8.980;2023-04-07T04:12:07;8;7;
57411;PMS5003;43247;52.828;-8.980;2023-04-07T04:13:08;6;6;
57411;PMS5003;43247;52.828;-8.980;2023-04-07T04:14:08;9;8;
57411;PMS5003;43247;52.828;-8.980;2023-04-07T04:15:08;6;6;
57411;PMS5003;43247;52.828;-8.980;2023-04-07T04:16:08;8;8;
57411;PMS5003;43247;52.828;-8.980;2023-04-07T04:17:08;6;6;
57411;PMS5003;43247;52.828;-8.980;2023-04-07T04:18:09;8;8;
57411;PMS5003;43247;52.828;-8.980;2023-04-07T04:19:09;8;7;
57411;PMS5003;43247;52.828;-8.980;2023-04-07T04:20:09;8;6;
57411;PMS5003;43247;52.828;-8.980;2023-04-07T04:21:09;6;6;
57411;PMS5003;43247;52.828;-8.980;2023-04-07T04:22:09;8;7;
57411;PMS5003;43247;52.828;-8.980;2023-04-07T04:23:09;8;7;
57411;PMS5003;43247;52.828;-8.980;2023-04-07T04:24:10;6;6;
57411;PMS5003;43247;52.828;-8.980;2023-04-07T04:25:10;8;8;
57411;PMS5003;43247;52.828;-8.980;2023-04-07T04:26:10;8;8;
57411;PMS5003;43247;52.828;-8.980;2023-04-07T04:27:11;7;6;
57411;PMS5003;43247;52.828;-8.980;2023-04-07T04:28:11;6;6;
57411;PMS5003;43247;52.828;-8.980;2023-04-07T04:29:11;7;7;
57411;PMS5003;43247;52.828;-8.980;2023-04-07T04:30:11;8;8;
57411;PMS5003;43247;52.828;-8.980;2023-04-07T04:31:12;5;5;
57411;PMS5003;43247;52.828;-8.980;2023-04-07T04:32:12;8;8;
57411;PMS5003;43247;52.828;-8.980;2023-04-07T04:33:12;6;6;
57411;PMS5003;43247;52.828;-8.980;2023-04-07T04:34:13;8;8;
57411;PMS5003;43247;52.828;-8.980;2023-04-07T04:35:13;7;6;
57411;PMS5003;43247;52.828;-8.980;2023-04-07T04:36:13;6;6;
57411;PMS5003;43247;52.828;-8.980;2023-04-07T04:37:13;6;6;
57411;PMS5003;43247;52.828;-8.980;2023-04-07T04:38:14;6;6;
57411;PMS5003;43247;52.828;-8.980;2023-04-07T04:39:14;8;7;
57411;PMS5003;43247;52.828;-8.980;2023-04-07T04:40:15;7;5;
57411;PMS5003;43247;52.828;-8.980;2023-04-07T04:41:15;7;5;
57411;PMS5003;43247;52.828;-8.980;2023-04-07T04:42:15;6;6;
57411;PMS5003;43247;52.828;-8.980;2023-04-07T04:43:15;6;6;
57411;PMS5003;43247;52.828;-8.980;2023-04-07T04:44:15;8;6;
57411;PMS5003;43247;52.828;-8.980;2023-04-07T04:45:16;7;6;
57411;PMS5003;43247;52.828;-8.980;2023-04-07T04:46:16;6;6;
57411;PMS5003;43247;52.828;-8.980;2023-04-07T04:47:16;7;7;
57411;PMS5003;43247;52.828;-8.980;2023-04-07T04:48:16;6;6;
57411;PMS5003;43247;52.828;-8.980;2023-04-07T04:49:16;7;7;
57411;PMS5003;43247;52.828;-8.980;2023-04-07T04:50:17;7;7;
57411;PMS5003;43247;52.828;-8.980;2023-04-07T04:51:17;7;7;
57411;PMS5003;43247;52.828;-8.980;2023-04-07T04:52:17;9;8;
57411;PMS5003;43247;52.828;-8.980;2023-04-07T04:53:17;5;5;
57411;PMS5003;43247;52.828;-8.980;2023-04-07T04:54:18;7;7;
57411;PMS5003;43247;52.828;-8.980;2023-04-07T04:55:18;4;4;
57411;PMS5003;43247;52.828;-8.980;2023-04-07T04:56:18;9;9;
57411;PMS5003;43247;52.828;-8.980;2023-04-07T04:57:18;9;7;
57411;PMS5003;43247;52.828;-8.980;2023-04-07T04:58:19;6;6;
57411;PMS5003;43247;52.828;-8.980;2023-04-07T04:59:18;7;7;
57411;PMS5003;43247;52.828;-8.980;2023-04-07T05:00:19;7;6;
57411;PMS5003;43247;52.828;-8.980;2023-04-07T05:01:19;7;7;
57411;PMS5003;43247;52.828;-8.980;2023-04-07T05:02:19;7;7;
57411;PMS5003;43247;52.828;-8.980;2023-04-07T05:03:19;6;5;
57411;PMS5003;43247;52.828;-8.980;2023-04-07T05:04:19;6;6;
57411;PMS5003;43247;52.828;-8.980;2023-04-07T05:05:19;7;7;
57411;PMS5003;43247;52.828;-8.980;2023-04-07T05:06:20;6;6;
57411;PMS5003;43247;52.828;-8.980;2023-04-07T05:07:20;9;9;
57411;PMS5003;43247;52.828;-8.980;2023-04-07T05:08:20;6;6;
57411;PMS5003;43247;52.828;-8.980;2023-04-07T05:09:20;6;5;
57411;PMS5003;43247;52.828;-8.980;2023-04-07T05:10:20;8;8;
57411;PMS5003;43247;52.828;-8.980;2023-04-07T05:11:21;7;7;
57411;PMS5003;43247;52.828;-8.980;2023-04-07T05:12:21;7;5;
57411;PMS5003;43247;52.828;-8.980;2023-04-07T05:13:21;8;7;
57411;PMS5003;43247;52.828;-8.980;2023-04-07T05:14:21;7;6;
57411;PMS5003;43247;52.828;-8.980;2023-04-07T05:15:21;8;8;
57411;PMS5003;43247;52.828;-8.980;2023-04-07T05:16:22;6;6;
57411;PMS5003;43247;52.828;-8.980;2023-04-07T05:17:22;7;7;
57411;PMS5003;43247;52.828;-8.980;2023-04-07T05:18:22;6;5;
57411;PMS5003;43247;52.828;-8.980;2023-04-07T05:19:22;6;6;
57411;PMS5003;43247;52.828;-8.980;2023-04-07T05:20:22;6;6;
57411;PMS5003;43247;52.828;-8.980;2023-04-07T05:21:23;7;7;
57411;PMS5003;43247;52.828;-8.980;2023-04-07T05:22:23;6;6;
57411;PMS5003;43247;52.828;-8.980;2023-04-07T05:23:23;6;5;
57411;PMS5003;43247;52.828;-8.980;2023-04-07T05:24:24;8;5;
57411;PMS5003;43247;52.828;-8.980;2023-04-07T05:25:23;7;6;
57411;PMS5003;43247;52.828;-8.980;2023-04-07T05:26:24;7;6;
57411;PMS5003;43247;52.828;-8.980;2023-04-07T05:27:24;8;8;
57411;PMS5003;43247;52.828;-8.980;2023-04-07T05:28:24;7;7;
57411;PMS5003;43247;52.828;-8.980;2023-04-07T05:29:24;7;6;
57411;PMS5003;43247;52.828;-8.980;2023-04-07T05:30:24;7;7;
57411;PMS5003;43247;52.828;-8.980;2023-04-07T05:31:25;5;5;
57411;PMS5003;43247;52.828;-8.980;2023-04-07T05:32:26;7;6;
57411;PMS5003;43247;52.828;-8.980;2023-04-07T05:33:25;7;7;
57411;PMS5003;43247;52.828;-8.980;2023-04-07T05:34:25;5;5;
57411;PMS5003;43247;52.828;-8.980;2023-04-07T05:35:25;5;5;
57411;PMS5003;43247;52.828;-8.980;2023-04-07T05:36:25;9;8;
57411;PMS5003;43247;52.828;-8.980;2023-04-07T05:37:26;6;5;
57411;PMS5003;43247;52.828;-8.980;2023-04-07T05:38:26;7;7;
57411;PMS5003;43247;52.828;-8.980;2023-04-07T05:39:26;7;7;
57411;PMS5003;43247;52.828;-8.980;2023-04-07T05:40:26;6;5;
57411;PMS5003;43247;52.828;-8.980;2023-04-07T05:41:26;11;6;
57411;PMS5003;43247;52.828;-8.980;2023-04-07T05:42:27;6;6;
57411;PMS5003;43247;52.828;-8.980;2023-04-07T05:43:27;5;4;
57411;PMS5003;43247;52.828;-8.980;2023-04-07T05:44:27;8;8;
57411;PMS5003;43247;52.828;-8.980;2023-04-07T05:45:27;6;5;
57411;PMS5003;43247;52.828;-8.980;2023-04-07T05:46:27;8;6;
57411;PMS5003;43247;52.828;-8.980;2023-04-07T05:47:28;8;8;
57411;PMS5003;43247;52.828;-8.980;2023-04-07T05:48:28;6;6;
57411;PMS5003;43247;52.828;-8.980;2023-04-07T05:49:28;3;3;
57411;PMS5003;43247;52.828;-8.980;2023-04-07T05:50:28;6;5;
57411;PMS5003;43247;52.828;-8.980;2023-04-07T05:51:28;6;4;
57411;PMS5003;43247;52.828;-8.980;2023-04-07T05:52:29;6;6;
57411;PMS5003;43247;52.828;-8.980;2023-04-07T05:53:29;7;7;
57411;PMS5003;43247;52.828;-8.980;2023-04-07T05:54:29;8;8;
57411;PMS5003;43247;52.828;-8.980;2023-04-07T05:55:29;6;6;
57411;PMS5003;43247;52.828;-8.980;2023-04-07T05:56:29;5;5;
57411;PMS5003;43247;52.828;-8.980;2023-04-07T05:57:30;6;6;
57411;PMS5003;43247;52.828;-8.980;2023-04-07T05:58:30;7;6;
57411;PMS5003;43247;52.828;-8.980;2023-04-07T05:59:30;6;6;
57411;PMS5003;43247;52.828;-8.980;2023-04-07T06:00:30;5;4;
57411;PMS5003;43247;52.828;-8.980;2023-04-07T06:01:31;6;4;
57411;PMS5003;43247;52.828;-8.980;2023-04-07T06:02:31;6;5;
57411;PMS5003;43247;52.828;-8.980;2023-04-07T06:03:31;6;6;
57411;PMS5003;43247;52.828;-8.980;2023-04-07T06:04:32;8;6;
57411;PMS5003;43247;52.828;-8.980;2023-04-07T06:05:32;7;7;
57411;PMS5003;43247;52.828;-8.980;2023-04-07T06:06:32;5;5;
57411;PMS5003;43247;52.828;-8.980;2023-04-07T06:07:32;4;4;
57411;PMS5003;43247;52.828;-8.980;2023-04-07T06:08:32;5;5;
57411;PMS5003;43247;52.828;-8.980;2023-04-07T06:09:32;7;7;
57411;PMS5003;43247;52.828;-8.980;2023-04-07T06:10:33;7;5;
57411;PMS5003;43247;52.828;-8.980;2023-04-07T06:11:33;5;5;
57411;PMS5003;43247;52.828;-8.980;2023-04-07T06:12:33;5;5;
57411;PMS5003;43247;52.828;-8.980;2023-04-07T06:13:33;5;4;
57411;PMS5003;43247;52.828;-8.980;2023-04-07T06:14:33;6;5;
57411;PMS5003;43247;52.828;-8.980;2023-04-07T06:15:34;7;7;
57411;PMS5003;43247;52.828;-8.980;2023-04-07T06:16:34;5;5;
57411;PMS5003;43247;52.828;-8.980;2023-04-07T06:17:34;10;10;
57411;PMS5003;43247;52.828;-8.980;2023-04-07T06:18:35;6;6;
57411;PMS5003;43247;52.828;-8.980;2023-04-07T06:19:35;5;5;
57411;PMS5003;43247;52.828;-8.980;2023-04-07T06:20:35;3;3;
57411;PMS5003;43247;52.828;-8.980;2023-04-07T06:21:35;6;5;
57411;PMS5003;43247;52.828;-8.980;2023-04-07T06:22:36;3;3;
57411;PMS5003;43247;52.828;-8.980;2023-04-07T06:23:36;4;4;
57411;PMS5003;43247;52.828;-8.980;2023-04-07T06:24:36;3;3;
57411;PMS5003;43247;52.828;-8.980;2023-04-07T06:25:36;4;4;
57411;PMS5003;43247;52.828;-8.980;2023-04-07T06:26:37;6;5;
57411;PMS5003;43247;52.828;-8.980;2023-04-07T06:27:37;5;5;
57411;PMS5003;43247;52.828;-8.980;2023-04-07T06:28:37;5;5;
57411;PMS5003;43247;52.828;-8.980;2023-04-07T06:29:37;7;5;
57411;PMS5003;43247;52.828;-8.980;2023-04-07T06:30:37;5;5;
57411;PMS5003;43247;52.828;-8.980;2023-04-07T06:31:38;6;6;
57411;PMS5003;43247;52.828;-8.980;2023-04-07T06:32:38;7;6;
57411;PMS5003;43247;52.828;-8.980;2023-04-07T06:33:39;14;12;
57411;PMS5003;43247;52.828;-8.980;2023-04-07T06:34:39;7;7;
57411;PMS5003;43247;52.828;-8.980;2023-04-07T06:35:39;7;7;
57411;PMS5003;43247;52.828;-8.980;2023-04-07T06:36:40;6;6;
57411;PMS5003;43247;52.828;-8.980;2023-04-07T06:37:40;9;7;
57411;PMS5003;43247;52.828;-8.980;2023-04-07T06:38:40;7;7;
57411;PMS5003;43247;52.828;-8.980;2023-04-07T06:39:40;8;8;
57411;PMS5003;43247;52.828;-8.980;2023-04-07T06:40:40;5;5;
57411;PMS5003;43247;52.828;-8.980;2023-04-07T06:41:41;6;5;
57411;PMS5003;43247;52.828;-8.980;2023-04-07T06:42:41;6;6;
57411;PMS5003;43247;52.828;-8.980;2023-04-07T06:43:41;5;5;
57411;PMS5003;43247;52.828;-8.980;2023-04-07T06:44:41;6;6;